Terminal Aerodrome Forecast
Issued by NWS

Current Version | Previous Version | Text Only | Print | Product List | Glossary On
Versions: 1 2 3 4 5 6 7 8 9 10 11 12 13 14 15
000
FTUS46 KMTR 301700
TAFSTS
TAF
KSTS 301738Z 3018/3118 16004KT P6SM BKN250
     FM302100 22005KT P6SM OVC200
     FM310400 20006KT P6SM OVC050
     FM311200 14004KT 6SM -RA BKN020
     FM311730 25007KT P6SM -SHRA BKN035=

USA.gov is the U.S. government's official web portal to all federal, state and local government web resources and services.